Hovedside
METAR-TAF:

METAR-TAF

Lufthavner :

Svalbard lufthavn. Longyear

Longyearbyen, Norge

breddegrad: 78-15N, lengdegrad: 015-28E, høyde over havet: 2 m

Gjeldene værobservasjon

Denne rapporten ble laget for 26 minutter siden, klokken 12:20 UTC
Vind 4 kt fra Øst-sørøst
Temperatur -18°C
Luftfuktighet 77%
Trykk 987 hPa
Sikt 10 km eller mer
Spredte skyer i en høyde av 1500 ft

METAR: ENSB 241220Z 11004KT 9999 SCT015 M18/M21 Q0987 NOSIG RMK WIND 1400FT 21004KT RMK ARCTIC SEA SMOKE

Tid: 13:46 (12:46 UTC)

Varsel

Varsel gyldig fra 24. klokken 12 UTC til 25. klokken 12 UTC
Vind 5 kt fra skiftende retning
Sikt 10 km eller mer
Få skyer i en høyde av 1500 ft
Midlertidig
fra 25. klokken 04 UTC til 25. klokken 12 UTC
Vind 10 kt fra Vest

TAF: ENSB 2412/2512 VRB05KT 9999 FEW015 TEMPO 2504/2512 28010KT

Værobservasjoner og værvarsel for over 4000 flyplasser (METAR- og TAF-rapporter).

Tilgjengelige stasjoner er representert av de røde og gule prikkene på kartet.

Hold musepekeren over prikken for å se navnet på stasjonen.

Klikk så for å se værobservasjoner og -varsler.

For å forandre kartet kan du klikke på den grønne knappen med svart kryss for å zoome inn, på den grønne knappen med strek for å zoome ut, eller på de grønne pilene for å se tilstøtende kart.


METAR-TAF: